createdAt,value
2023-03-07T00:02:14.056Z,16.75
2023-03-07T00:04:45.922Z,16.38
2023-03-07T00:07:21.104Z,16.00
2023-03-07T00:09:48.039Z,17.95
2023-03-07T00:12:14.893Z,19.25
2023-03-07T00:14:48.865Z,15.68
2023-03-07T00:17:15.881Z,18.83
2023-03-07T00:19:44.561Z,16.17
2023-03-07T00:22:14.196Z,17.48
2023-03-07T00:24:41.576Z,21.33
2023-03-07T00:27:14.281Z,16.90
2023-03-07T00:29:42.111Z,15.52
2023-03-07T00:32:12.052Z,18.25
2023-03-07T00:34:41.335Z,16.50
2023-03-07T00:37:33.961Z,19.38
2023-03-07T00:40:00.827Z,16.25
2023-03-07T00:42:27.958Z,17.77
2023-03-07T00:45:00.993Z,18.80
2023-03-07T00:47:28.941Z,15.70
2023-03-07T00:49:59.988Z,20.60
2023-03-07T00:52:27.666Z,15.50
2023-03-07T00:54:55.048Z,21.23
2023-03-07T00:57:28.971Z,17.00
2023-03-07T01:00:00.482Z,19.98
2023-03-07T01:02:29.523Z,17.10
2023-03-07T01:04:57.177Z,18.23
2023-03-07T01:07:23.981Z,19.23
2023-03-07T01:09:54.369Z,19.05
2023-03-07T01:15:19.519Z,18.08
2023-03-07T01:17:46.388Z,21.65
2023-03-07T01:20:16.298Z,16.45
2023-03-07T01:22:49.957Z,19.80
2023-03-07T01:25:20.681Z,16.70
2023-03-07T01:27:57.816Z,13.48
2023-03-07T01:30:44.934Z,18.95
2023-03-07T01:33:15.354Z,15.18
2023-03-07T01:35:47.809Z,16.67
2023-03-07T01:38:15.460Z,17.13
2023-03-07T01:40:42.629Z,17.10
2023-03-07T01:43:23.349Z,16.88
2023-03-07T01:46:27.689Z,15.50
2023-03-07T01:49:10.493Z,17.57
2023-03-07T01:51:44.007Z,19.92
2023-03-07T01:54:13.670Z,18.75
2023-03-07T01:56:43.303Z,15.57
2023-03-07T01:59:11.406Z,16.48
2023-03-07T02:01:44.278Z,19.92
2023-03-07T02:04:25.941Z,19.58
2023-03-07T02:06:52.877Z,17.95
2023-03-07T02:09:25.021Z,19.85
2023-03-07T02:12:01.158Z,20.42
2023-03-07T02:14:30.845Z,18.10
2023-03-07T02:16:57.813Z,22.58
2023-03-07T02:19:48.529Z,18.27
2023-03-07T02:22:18.060Z,18.20
2023-03-07T02:24:54.087Z,20.25
2023-03-07T02:30:24.077Z,20.95
2023-03-07T02:32:53.101Z,22.13
2023-03-07T02:35:27.108Z,19.38
2023-03-07T02:38:06.894Z,22.52
2023-03-07T02:40:33.889Z,20.35
2023-03-07T02:43:08.837Z,17.73
2023-03-07T02:48:42.012Z,19.73
2023-03-07T02:51:31.107Z,27.30
2023-03-07T02:53:57.889Z,20.92
2023-03-07T02:56:26.165Z,20.98
2023-03-07T02:58:53.164Z,19.60
2023-03-07T03:01:20.034Z,18.90
2023-03-07T03:03:49.190Z,22.45
2023-03-07T03:06:19.111Z,23.70
2023-03-07T03:08:45.737Z,23.02
2023-03-07T03:11:14.519Z,20.48
2023-03-07T03:13:44.138Z,23.02
2023-03-07T03:16:14.827Z,18.25
2023-03-07T03:18:43.613Z,18.95
2023-03-07T03:21:12.015Z,16.73
2023-03-07T03:23:38.767Z,18.65
2023-03-07T03:26:10.507Z,20.27
2023-03-07T03:28:39.390Z,19.15
2023-03-07T03:31:14.269Z,18.85
2023-03-07T03:33:45.515Z,17.27
2023-03-07T03:36:15.307Z,20.70
2023-03-07T03:38:47.162Z,18.35
2023-03-07T03:41:15.374Z,21.17
2023-03-07T03:43:44.846Z,17.92
2023-03-07T03:46:14.240Z,18.33
2023-03-07T03:48:41.363Z,16.10
2023-03-07T03:51:15.332Z,19.23
2023-03-07T03:53:43.841Z,21.13
2023-03-07T03:56:14.249Z,18.38
2023-03-07T04:01:37.262Z,19.40
2023-03-07T04:04:06.704Z,30.17
2023-03-07T04:06:34.538Z,22.48
2023-03-07T04:12:00.507Z,34.33
2023-03-07T04:14:30.636Z,41.08
2023-03-07T04:16:59.724Z,17.48
2023-03-07T04:19:29.397Z,25.10
2023-03-07T04:21:56.439Z,23.08
2023-03-07T04:24:23.064Z,18.15
2023-03-07T04:26:52.142Z,19.25
2023-03-07T04:29:18.844Z,21.42
2023-03-07T04:31:56.473Z,30.25
2023-03-07T04:34:23.413Z,23.95
2023-03-07T04:36:50.528Z,29.55
2023-03-07T04:39:19.677Z,18.10
2023-03-07T04:41:47.100Z,17.88
2023-03-07T04:47:20.660Z,20.55
2023-03-07T04:49:47.242Z,17.77
2023-03-07T04:52:15.074Z,17.17
2023-03-07T04:54:42.388Z,26.13
2023-03-07T04:57:11.696Z,15.23
2023-03-07T04:59:38.932Z,15.98
2023-03-07T05:02:07.325Z,16.05
2023-03-07T05:04:35.784Z,18.58
2023-03-07T05:07:03.343Z,17.90
2023-03-07T05:09:32.624Z,17.20
2023-03-07T05:12:00.376Z,16.92
2023-03-07T05:14:49.284Z,14.75
2023-03-07T05:17:16.235Z,17.80
2023-03-07T05:19:43.049Z,17.13
2023-03-07T05:22:13.604Z,19.73
2023-03-07T05:24:46.158Z,15.05
2023-03-07T05:27:16.374Z,18.17
2023-03-07T05:29:43.544Z,17.27
2023-03-07T05:32:13.464Z,15.48
2023-03-07T05:34:46.262Z,17.48
2023-03-07T05:37:13.760Z,16.67
2023-03-07T05:39:41.488Z,16.10
2023-03-07T05:42:14.902Z,14.63
2023-03-07T05:45:10.899Z,14.35
2023-03-07T05:47:40.310Z,17.02
2023-03-07T05:50:09.819Z,17.67
2023-03-07T05:52:41.231Z,14.82
2023-03-07T05:55:19.431Z,16.02
2023-03-07T05:57:49.533Z,17.33
2023-03-07T06:00:20.137Z,15.65
2023-03-07T06:02:58.513Z,13.82
2023-03-07T06:05:25.578Z,15.57
2023-03-07T06:07:54.500Z,17.52
2023-03-07T06:10:21.524Z,13.98
2023-03-07T06:12:54.109Z,15.02
2023-03-07T06:15:25.485Z,14.80
2023-03-07T06:18:01.442Z,15.50
2023-03-07T06:20:30.292Z,15.00
2023-03-07T06:31:59.599Z,13.77
2023-03-07T06:34:28.934Z,14.43
2023-03-07T06:37:02.713Z,14.15
2023-03-07T06:39:31.472Z,14.15
2023-03-07T06:42:02.057Z,14.48
2023-03-07T06:44:31.210Z,19.10
2023-03-07T06:47:03.353Z,12.32
2023-03-07T06:49:30.262Z,13.60
2023-03-07T06:51:57.082Z,14.13
2023-03-07T06:54:23.795Z,12.75
2023-03-07T06:56:54.853Z,11.43
2023-03-07T06:59:26.696Z,11.10
2023-03-07T07:01:54.152Z,11.38
2023-03-07T07:04:22.236Z,14.40
2023-03-07T07:07:14.997Z,13.98
2023-03-07T07:09:42.793Z,16.10
2023-03-07T07:12:09.863Z,14.25
2023-03-07T07:14:38.679Z,12.73
2023-03-07T07:17:08.386Z,13.65
2023-03-07T07:19:35.292Z,12.20
2023-03-07T07:22:03.967Z,13.25
2023-03-07T07:24:30.674Z,13.18
2023-03-07T07:26:57.891Z,10.10
2023-03-07T07:29:28.161Z,12.27
2023-03-07T07:31:57.169Z,10.70
2023-03-07T07:34:24.107Z,11.90
2023-03-07T07:36:52.446Z,12.98
2023-03-07T07:39:21.037Z,11.63
2023-03-07T07:41:47.733Z,14.18
2023-03-07T07:44:17.013Z,15.55
2023-03-07T07:46:54.574Z,12.43
2023-03-07T07:49:25.985Z,10.70
2023-03-07T07:51:53.061Z,13.20
2023-03-07T07:54:20.590Z,9.23
2023-03-07T07:56:48.963Z,11.73
2023-03-07T07:59:19.573Z,10.65
2023-03-07T08:01:46.296Z,11.63
2023-03-07T08:04:15.497Z,11.50
2023-03-07T08:06:43.596Z,9.13
2023-03-07T08:09:15.809Z,10.43
2023-03-07T08:11:42.557Z,8.80
2023-03-07T08:14:35.188Z,11.95
2023-03-07T08:17:12.211Z,8.80
2023-03-07T08:19:39.397Z,12.05
2023-03-07T08:22:06.410Z,11.45
2023-03-07T08:24:40.831Z,10.57
2023-03-07T08:27:08.620Z,11.02
2023-03-07T08:29:39.998Z,14.18
2023-03-07T08:32:11.959Z,8.05
2023-03-07T08:34:40.485Z,10.90
2023-03-07T08:37:07.102Z,13.68
2023-03-07T08:39:34.223Z,13.68
2023-03-07T08:42:02.234Z,11.38
2023-03-07T08:44:28.867Z,8.98
2023-03-07T08:46:57.646Z,7.97
2023-03-07T08:49:24.589Z,9.95
2023-03-07T08:51:52.431Z,8.50
2023-03-07T08:54:19.165Z,8.45
2023-03-07T08:56:45.762Z,8.93
2023-03-07T08:59:42.203Z,10.13
2023-03-07T09:02:16.556Z,11.70
2023-03-07T09:04:44.843Z,14.88
2023-03-07T09:10:05.190Z,10.63
2023-03-07T09:12:33.492Z,10.43
2023-03-07T09:15:28.956Z,10.20
2023-03-07T09:17:56.730Z,7.10
2023-03-07T09:20:24.192Z,11.52
2023-03-07T09:22:53.486Z,8.10
2023-03-07T09:25:22.458Z,11.18
2023-03-07T09:27:51.614Z,8.88
2023-03-07T09:30:28.249Z,17.70
2023-03-07T09:32:55.442Z,11.43
2023-03-07T09:35:22.425Z,12.57
2023-03-07T09:37:51.601Z,11.60
2023-03-07T09:40:25.677Z,11.02
2023-03-07T09:43:15.160Z,10.23
2023-03-07T09:46:17.099Z,19.55
2023-03-07T09:49:09.325Z,11.40
2023-03-07T09:55:09.183Z,10.93
2023-03-07T09:57:51.060Z,10.65
2023-03-07T10:00:34.652Z,12.15
2023-03-07T10:03:18.499Z,10.55
2023-03-07T10:05:51.880Z,10.90
2023-03-07T10:08:29.591Z,10.35
2023-03-07T10:11:08.451Z,8.88
2023-03-07T10:13:59.556Z,11.30
2023-03-07T10:16:59.179Z,12.10
2023-03-07T10:19:46.881Z,8.63
2023-03-07T10:22:32.472Z,8.50
2023-03-07T10:25:18.836Z,9.75
2023-03-07T10:27:53.984Z,11.40
2023-03-07T10:39:52.835Z,13.80
2023-03-07T10:42:36.348Z,8.35
2023-03-07T10:45:15.895Z,6.88
2023-03-07T10:47:54.952Z,8.52
2023-03-07T10:50:42.944Z,8.40
2023-03-07T10:53:26.642Z,8.48
2023-03-07T10:56:15.188Z,8.23
2023-03-07T10:59:00.956Z,9.18
2023-03-07T11:01:29.108Z,7.85
2023-03-07T11:04:00.010Z,9.20
2023-03-07T11:06:54.806Z,9.02
2023-03-07T11:09:29.635Z,8.63
2023-03-07T11:11:59.839Z,9.07
2023-03-07T11:14:28.661Z,8.30
2023-03-07T11:16:55.947Z,9.35
2023-03-07T11:19:38.878Z,8.48
2023-03-07T11:22:39.799Z,11.35
2023-03-07T11:25:19.787Z,8.50
2023-03-07T11:27:57.343Z,7.85
2023-03-07T11:30:30.771Z,8.10
2023-03-07T11:33:31.081Z,9.05
2023-03-07T11:36:26.287Z,8.23
2023-03-07T11:39:27.950Z,8.27
2023-03-07T11:42:07.488Z,8.30
2023-03-07T11:44:42.321Z,6.78
2023-03-07T11:47:27.341Z,8.73
2023-03-07T11:50:11.375Z,8.07
2023-03-07T11:54:05.710Z,13.25
2023-03-07T11:57:14.809Z,7.40
2023-03-07T12:00:19.920Z,13.25
2023-03-07T12:03:37.027Z,9.45
2023-03-07T12:06:06.792Z,9.98
2023-03-07T12:08:58.629Z,8.02
2023-03-07T12:11:56.951Z,8.93
2023-03-07T12:14:35.828Z,8.77
2023-03-07T12:17:26.023Z,9.35
2023-03-07T12:20:07.941Z,10.98
2023-03-07T12:23:09.509Z,9.80
2023-03-07T12:25:42.879Z,8.88
2023-03-07T12:28:24.530Z,6.57
2023-03-07T12:31:21.551Z,8.20
2023-03-07T12:34:03.565Z,8.48
2023-03-07T12:36:35.452Z,10.77
2023-03-07T12:39:14.307Z,11.00
2023-03-07T12:41:55.130Z,8.13
2023-03-07T12:44:52.230Z,9.55
2023-03-07T12:47:45.659Z,8.75
2023-03-07T12:50:33.992Z,9.10
2023-03-07T12:53:29.159Z,11.23
2023-03-07T12:56:21.763Z,10.07
2023-03-07T12:59:01.773Z,7.05
2023-03-07T13:01:48.060Z,6.97
2023-03-07T13:04:31.697Z,10.35
2023-03-07T13:07:24.933Z,9.02
2023-03-07T13:09:56.393Z,10.35
2023-03-07T13:12:36.196Z,7.38
2023-03-07T13:15:27.796Z,10.32
2023-03-07T13:18:02.550Z,10.63
2023-03-07T13:20:40.664Z,8.32
2023-03-07T13:23:21.633Z,9.20
2023-03-07T13:26:11.669Z,9.43
2023-03-07T13:28:46.582Z,8.07
2023-03-07T13:31:30.100Z,11.13
2023-03-07T13:34:35.354Z,8.80
2023-03-07T13:37:40.406Z,8.82
2023-03-07T13:40:23.156Z,7.70
2023-03-07T13:42:50.505Z,9.20
2023-03-07T13:45:42.199Z,7.95
2023-03-07T13:48:21.623Z,8.23
2023-03-07T13:50:48.930Z,9.57
2023-03-07T13:53:30.645Z,9.80
2023-03-07T13:56:16.138Z,7.25
2023-03-07T13:58:46.900Z,9.30
2023-03-07T14:01:46.964Z,7.93
2023-03-07T14:04:40.468Z,11.05
2023-03-07T14:07:31.166Z,13.43
2023-03-07T14:10:22.525Z,6.38
2023-03-07T14:13:17.186Z,6.75
2023-03-07T14:16:16.196Z,7.55
2023-03-07T14:18:57.165Z,10.23
2023-03-07T14:21:45.497Z,10.55
2023-03-07T14:24:30.803Z,8.50
2023-03-07T14:27:02.134Z,8.10
2023-03-07T14:29:30.319Z,8.63
2023-03-07T14:32:01.277Z,6.90
2023-03-07T14:34:31.404Z,9.70
2023-03-07T14:37:03.750Z,8.80
2023-03-07T14:39:53.904Z,10.95
2023-03-07T14:42:53.180Z,10.70
2023-03-07T14:49:08.299Z,8.70
2023-03-07T14:51:43.525Z,8.75
2023-03-07T14:54:16.805Z,9.25
2023-03-07T14:56:49.143Z,9.20
2023-03-07T14:59:29.173Z,10.73
2023-03-07T15:02:07.980Z,7.43
2023-03-07T15:04:38.057Z,10.85
2023-03-07T15:07:10.615Z,9.55
2023-03-07T15:09:37.714Z,9.20
2023-03-07T15:12:14.971Z,10.80
2023-03-07T15:14:57.243Z,9.52
2023-03-07T15:17:28.721Z,8.45
2023-03-07T15:20:03.859Z,7.78
2023-03-07T15:22:38.753Z,9.13
2023-03-07T15:25:16.733Z,6.38
2023-03-07T15:27:45.824Z,11.05
2023-03-07T15:30:31.644Z,8.30
2023-03-07T15:33:15.238Z,6.90
2023-03-07T15:35:43.881Z,6.90
2023-03-07T15:38:22.722Z,8.18
2023-03-07T15:40:51.021Z,9.32
2023-03-07T15:43:22.947Z,11.20
2023-03-07T15:46:05.477Z,6.80
2023-03-07T15:48:43.337Z,10.15
2023-03-07T15:51:19.927Z,9.38
2023-03-07T15:53:58.454Z,6.75
2023-03-07T15:56:54.255Z,6.88
2023-03-07T15:59:36.585Z,6.47
2023-03-07T16:02:32.064Z,8.70
2023-03-07T16:05:03.886Z,9.02
2023-03-07T16:07:30.734Z,8.32
2023-03-07T16:10:04.161Z,7.40
2023-03-07T16:13:00.348Z,7.30
2023-03-07T16:15:28.439Z,8.75
2023-03-07T16:17:56.325Z,8.45
2023-03-07T16:20:32.864Z,9.02
2023-03-07T16:22:59.953Z,11.80
2023-03-07T16:25:31.078Z,11.38
2023-03-07T16:28:49.958Z,8.07
2023-03-07T16:31:23.451Z,9.32
2023-03-07T16:33:54.461Z,11.52
2023-03-07T16:36:22.464Z,16.45
2023-03-07T16:38:51.772Z,10.15
2023-03-07T16:41:21.961Z,9.32
2023-03-07T16:43:58.069Z,9.27
2023-03-07T16:46:29.463Z,14.40
2023-03-07T16:48:58.923Z,9.48
2023-03-07T16:51:34.858Z,8.00
2023-03-07T16:54:02.237Z,8.10
2023-03-07T16:56:36.094Z,14.45
2023-03-07T16:59:03.182Z,16.10
2023-03-07T17:01:57.442Z,12.95
2023-03-07T17:04:24.028Z,12.13
2023-03-07T17:07:01.071Z,8.48
2023-03-07T17:10:03.461Z,8.93
2023-03-07T17:13:00.682Z,9.05
2023-03-07T17:15:50.463Z,8.77
2023-03-07T17:18:47.240Z,9.68
2023-03-07T17:21:36.517Z,10.32
2023-03-07T17:24:07.500Z,9.15
2023-03-07T17:26:40.593Z,9.18
2023-03-07T17:29:12.614Z,14.30
2023-03-07T17:31:41.304Z,9.00
2023-03-07T17:34:24.248Z,14.35
2023-03-07T17:39:18.048Z,14.23
2023-03-07T17:50:24.642Z,12.18
2023-03-07T17:52:55.224Z,11.85
2023-03-07T17:57:51.682Z,13.05
2023-03-07T18:00:24.084Z,15.18
2023-03-07T18:02:52.238Z,16.35
2023-03-07T18:05:31.334Z,12.27
2023-03-07T18:07:58.013Z,11.57
2023-03-07T18:10:27.648Z,9.95
2023-03-07T18:13:03.480Z,12.30
2023-03-07T18:15:33.678Z,16.45
2023-03-07T18:18:06.136Z,9.88
2023-03-07T18:20:33.415Z,10.40
2023-03-07T18:23:00.136Z,10.60
2023-03-07T18:25:27.771Z,10.05
2023-03-07T18:27:56.413Z,8.77
2023-03-07T18:30:28.749Z,10.68
2023-03-07T18:32:56.272Z,11.82
2023-03-07T18:35:30.177Z,14.27
2023-03-07T18:37:57.857Z,18.98
2023-03-07T18:40:27.868Z,10.90
2023-03-07T18:42:58.565Z,12.38
2023-03-07T18:45:27.703Z,10.02
2023-03-07T18:47:56.260Z,10.68
2023-03-07T18:50:27.660Z,7.95
2023-03-07T18:53:00.989Z,12.20
2023-03-07T18:55:32.571Z,10.23
2023-03-07T18:58:01.360Z,6.28
2023-03-07T19:00:28.064Z,9.43
2023-03-07T19:03:20.510Z,8.35
2023-03-07T19:05:53.620Z,9.68
2023-03-07T19:08:21.273Z,9.88
2023-03-07T19:11:11.034Z,8.15
2023-03-07T19:13:38.569Z,7.75
2023-03-07T19:16:12.302Z,7.47
2023-03-07T19:18:44.698Z,8.77
2023-03-07T19:21:20.227Z,9.93
2023-03-07T19:23:48.220Z,7.78
2023-03-07T19:26:17.572Z,14.98
2023-03-07T19:28:53.303Z,9.77
2023-03-07T19:31:23.476Z,10.90
2023-03-07T19:33:54.779Z,9.32
2023-03-07T19:36:34.513Z,7.90
2023-03-07T19:39:22.616Z,9.40
2023-03-07T19:41:58.748Z,9.05
2023-03-07T19:44:27.968Z,13.68
2023-03-07T19:46:55.233Z,10.82
2023-03-07T19:49:25.718Z,10.23
2023-03-07T19:52:00.985Z,8.10
2023-03-07T19:54:27.822Z,10.07
2023-03-07T19:56:58.379Z,8.27
2023-03-07T19:59:28.974Z,8.85
2023-03-07T20:02:22.682Z,9.35
2023-03-07T20:04:52.319Z,14.13
2023-03-07T20:07:21.971Z,11.80
2023-03-07T20:09:52.189Z,10.77
2023-03-07T20:12:18.903Z,7.95
2023-03-07T20:14:51.076Z,8.30
2023-03-07T20:17:19.048Z,8.32
2023-03-07T20:19:56.738Z,8.50
2023-03-07T20:22:29.151Z,7.32
2023-03-07T20:27:24.280Z,7.82
2023-03-07T20:29:57.143Z,7.47
2023-03-07T20:32:26.260Z,9.57
2023-03-07T20:34:53.280Z,7.38
2023-03-07T20:37:20.035Z,5.28
2023-03-07T20:40:00.397Z,9.48
2023-03-07T20:42:33.601Z,8.60
2023-03-07T20:45:01.335Z,9.40
2023-03-07T20:47:33.230Z,18.38
2023-03-07T20:50:05.499Z,16.48
2023-03-07T20:52:34.715Z,11.55
2023-03-07T20:55:04.368Z,11.02
2023-03-07T20:57:31.376Z,7.30
2023-03-07T21:00:05.676Z,9.57
2023-03-07T21:03:04.957Z,14.57
2023-03-07T21:05:33.686Z,8.60
2023-03-07T21:08:03.955Z,13.75
2023-03-07T21:10:34.619Z,8.18
2023-03-07T21:13:11.337Z,10.50
2023-03-07T21:15:42.325Z,10.43
2023-03-07T21:18:11.237Z,6.10
2023-03-07T21:20:40.942Z,9.63
2023-03-07T21:23:11.774Z,9.25
2023-03-07T21:25:45.250Z,8.80
2023-03-07T21:28:17.055Z,10.38
2023-03-07T21:30:43.746Z,10.73
2023-03-07T21:33:10.733Z,8.95
2023-03-07T21:35:39.396Z,9.40
2023-03-07T21:38:08.318Z,7.80
2023-03-07T21:40:35.129Z,7.97
2023-03-07T21:43:01.959Z,8.93
2023-03-07T21:45:32.860Z,6.90
2023-03-07T21:48:08.760Z,11.77
2023-03-07T21:50:37.113Z,11.27
2023-03-07T21:53:09.842Z,11.48
2023-03-07T21:55:56.939Z,7.90
2023-03-07T21:58:28.479Z,7.00
2023-03-07T22:00:55.697Z,11.38
2023-03-07T22:03:27.522Z,14.77
2023-03-07T22:05:57.142Z,14.77
2023-03-07T22:08:24.762Z,14.73
2023-03-07T22:11:02.748Z,9.90
2023-03-07T22:13:31.904Z,9.85
2023-03-07T22:16:03.112Z,10.45
2023-03-07T22:18:35.391Z,6.70
2023-03-07T22:21:12.893Z,8.60
2023-03-07T22:23:42.996Z,9.90
2023-03-07T22:26:11.577Z,7.90
2023-03-07T22:34:50.187Z,10.02
2023-03-07T22:37:17.432Z,7.40
2023-03-07T22:39:47.182Z,8.65
2023-03-07T22:42:13.887Z,6.82
2023-03-07T22:44:42.548Z,13.05
2023-03-07T22:47:11.463Z,8.90
2023-03-07T22:49:39.258Z,8.90
2023-03-07T22:52:05.895Z,7.95
2023-03-07T22:54:32.846Z,10.13
2023-03-07T22:57:00.350Z,8.55
2023-03-07T22:59:30.147Z,11.13
2023-03-07T23:01:56.807Z,11.10
2023-03-07T23:04:33.454Z,9.70
2023-03-07T23:07:21.519Z,10.52
2023-03-07T23:09:50.271Z,8.18
2023-03-07T23:12:16.897Z,10.38
2023-03-07T23:14:47.850Z,10.68
2023-03-07T23:17:14.486Z,10.40
2023-03-07T23:19:44.951Z,9.80
2023-03-07T23:22:16.050Z,11.13
2023-03-07T23:24:42.743Z,12.77
2023-03-07T23:27:14.972Z,11.18
2023-03-07T23:29:47.875Z,11.38
2023-03-07T23:35:12.445Z,9.47
2023-03-07T23:37:43.069Z,11.53
2023-03-07T23:40:11.972Z,11.65
2023-03-07T23:42:43.132Z,12.45
2023-03-07T23:45:12.304Z,14.73
2023-03-07T23:47:48.358Z,12.38
2023-03-07T23:50:16.160Z,12.77
2023-03-07T23:52:44.793Z,12.15
